sensor_id;sensor_type;location;lat;lon;timestamp;P1;durP1;ratioP1;P2;durP2;ratioP2
72194;SDS011;60095;50.180;9.032;2023-03-20T00:00:45;5.70;;;5.22;;
72194;SDS011;60095;50.180;9.032;2023-03-20T00:03:12;10.00;;;5.97;;
72194;SDS011;60095;50.180;9.032;2023-03-20T00:05:39;4.88;;;4.47;;
72194;SDS011;60095;50.180;9.032;2023-03-20T00:08:05;6.18;;;5.57;;
72194;SDS011;60095;50.180;9.032;2023-03-20T00:10:33;6.97;;;5.55;;
72194;SDS011;60095;50.180;9.032;2023-03-20T00:13:01;6.13;;;5.55;;
72194;SDS011;60095;50.180;9.032;2023-03-20T00:15:29;5.30;;;4.80;;
72194;SDS011;60095;50.180;9.032;2023-03-20T00:17:57;7.82;;;5.15;;
72194;SDS011;60095;50.180;9.032;2023-03-20T00:20:24;4.38;;;3.67;;
72194;SDS011;60095;50.180;9.032;2023-03-20T00:22:50;7.28;;;4.68;;
72194;SDS011;60095;50.180;9.032;2023-03-20T00:25:18;4.07;;;3.70;;
72194;SDS011;60095;50.180;9.032;2023-03-20T00:27:44;3.47;;;2.45;;
72194;SDS011;60095;50.180;9.032;2023-03-20T00:30:33;3.25;;;2.95;;
72194;SDS011;60095;50.180;9.032;2023-03-20T00:33:01;4.07;;;2.63;;
72194;SDS011;60095;50.180;9.032;2023-03-20T00:35:28;4.63;;;3.83;;
72194;SDS011;60095;50.180;9.032;2023-03-20T00:37:55;2.92;;;2.60;;
72194;SDS011;60095;50.180;9.032;2023-03-20T00:40:22;4.65;;;3.10;;
72194;SDS011;60095;50.180;9.032;2023-03-20T00:42:52;1.88;;;1.73;;
72194;SDS011;60095;50.180;9.032;2023-03-20T00:45:22;3.85;;;3.13;;
72194;SDS011;60095;50.180;9.032;2023-03-20T00:47:48;3.38;;;2.25;;
72194;SDS011;60095;50.180;9.032;2023-03-20T00:50:18;7.72;;;2.17;;
72194;SDS011;60095;50.180;9.032;2023-03-20T00:52:45;2.85;;;1.88;;
72194;SDS011;60095;50.180;9.032;2023-03-20T00:55:12;5.20;;;1.55;;
72194;SDS011;60095;50.180;9.032;2023-03-20T00:57:39;10.32;;;2.80;;
72194;SDS011;60095;50.180;9.032;2023-03-20T01:00:10;5.13;;;2.08;;
72194;SDS011;60095;50.180;9.032;2023-03-20T01:02:42;2.30;;;2.13;;
72194;SDS011;60095;50.180;9.032;2023-03-20T01:05:08;2.15;;;1.95;;
72194;SDS011;60095;50.180;9.032;2023-03-20T01:07:36;4.18;;;2.40;;
72194;SDS011;60095;50.180;9.032;2023-03-20T01:10:02;2.83;;;2.17;;
72194;SDS011;60095;50.180;9.032;2023-03-20T01:12:29;2.40;;;1.58;;
72194;SDS011;60095;50.180;9.032;2023-03-20T01:14:56;3.70;;;2.33;;
72194;SDS011;60095;50.180;9.032;2023-03-20T01:17:24;2.60;;;2.08;;
72194;SDS011;60095;50.180;9.032;2023-03-20T01:19:50;2.13;;;1.52;;
72194;SDS011;60095;50.180;9.032;2023-03-20T01:22:17;2.65;;;1.85;;
72194;SDS011;60095;50.180;9.032;2023-03-20T01:24:45;3.53;;;2.05;;
72194;SDS011;60095;50.180;9.032;2023-03-20T01:27:12;3.40;;;2.30;;
72194;SDS011;60095;50.180;9.032;2023-03-20T01:29:39;5.20;;;1.92;;
72194;SDS011;60095;50.180;9.032;2023-03-20T01:32:07;2.75;;;1.27;;
72194;SDS011;60095;50.180;9.032;2023-03-20T01:34:35;2.35;;;2.15;;
72194;SDS011;60095;50.180;9.032;2023-03-20T01:37:01;1.67;;;1.58;;
72194;SDS011;60095;50.180;9.032;2023-03-20T01:39:30;6.32;;;2.25;;
72194;SDS011;60095;50.180;9.032;2023-03-20T01:41:58;1.63;;;1.40;;
72194;SDS011;60095;50.180;9.032;2023-03-20T01:44:27;2.78;;;1.95;;
72194;SDS011;60095;50.180;9.032;2023-03-20T01:46:53;2.95;;;2.47;;
72194;SDS011;60095;50.180;9.032;2023-03-20T01:52:05;3.15;;;2.15;;
72194;SDS011;60095;50.180;9.032;2023-03-20T01:54:32;1.52;;;1.42;;
72194;SDS011;60095;50.180;9.032;2023-03-20T01:57:02;3.85;;;2.05;;
72194;SDS011;60095;50.180;9.032;2023-03-20T01:59:30;1.75;;;1.45;;
72194;SDS011;60095;50.180;9.032;2023-03-20T02:01:58;2.65;;;1.92;;
72194;SDS011;60095;50.180;9.032;2023-03-20T02:04:25;1.60;;;1.10;;
72194;SDS011;60095;50.180;9.032;2023-03-20T02:06:54;3.80;;;1.95;;
72194;SDS011;60095;50.180;9.032;2023-03-20T02:09:21;1.60;;;1.08;;
72194;SDS011;60095;50.180;9.032;2023-03-20T02:11:47;1.65;;;1.35;;
72194;SDS011;60095;50.180;9.032;2023-03-20T02:14:15;1.73;;;1.48;;
72194;SDS011;60095;50.180;9.032;2023-03-20T02:16:41;1.23;;;1.13;;
72194;SDS011;60095;50.180;9.032;2023-03-20T02:19:09;8.23;;;3.05;;
72194;SDS011;60095;50.180;9.032;2023-03-20T02:24:39;9.00;;;2.17;;
72194;SDS011;60095;50.180;9.032;2023-03-20T02:27:08;1.48;;;1.13;;
72194;SDS011;60095;50.180;9.032;2023-03-20T02:29:49;2.35;;;1.35;;
72194;SDS011;60095;50.180;9.032;2023-03-20T02:32:49;1.95;;;1.42;;
72194;SDS011;60095;50.180;9.032;2023-03-20T02:35:46;6.90;;;2.28;;
72194;SDS011;60095;50.180;9.032;2023-03-20T02:38:27;3.05;;;2.33;;
72194;SDS011;60095;50.180;9.032;2023-03-20T02:40:57;3.00;;;1.83;;
72194;SDS011;60095;50.180;9.032;2023-03-20T02:43:27;1.15;;;0.90;;
72194;SDS011;60095;50.180;9.032;2023-03-20T02:45:58;2.90;;;2.03;;
72194;SDS011;60095;50.180;9.032;2023-03-20T02:48:32;7.20;;;1.50;;
72194;SDS011;60095;50.180;9.032;2023-03-20T02:51:02;2.05;;;1.63;;
72194;SDS011;60095;50.180;9.032;2023-03-20T02:53:36;2.25;;;1.80;;
72194;SDS011;60095;50.180;9.032;2023-03-20T02:56:07;14.68;;;2.70;;
72194;SDS011;60095;50.180;9.032;2023-03-20T02:58:36;1.45;;;1.35;;
72194;SDS011;60095;50.180;9.032;2023-03-20T03:01:06;1.35;;;1.20;;
72194;SDS011;60095;50.180;9.032;2023-03-20T03:03:35;3.25;;;2.22;;
72194;SDS011;60095;50.180;9.032;2023-03-20T03:06:04;3.38;;;2.72;;
72194;SDS011;60095;50.180;9.032;2023-03-20T03:08:32;5.20;;;2.08;;
72194;SDS011;60095;50.180;9.032;2023-03-20T03:11:03;2.42;;;1.85;;
72194;SDS011;60095;50.180;9.032;2023-03-20T03:13:31;1.58;;;1.20;;
72194;SDS011;60095;50.180;9.032;2023-03-20T03:15:58;2.20;;;2.00;;
72194;SDS011;60095;50.180;9.032;2023-03-20T03:18:27;3.80;;;2.13;;
72194;SDS011;60095;50.180;9.032;2023-03-20T03:20:55;6.00;;;2.05;;
72194;SDS011;60095;50.180;9.032;2023-03-20T03:23:24;1.15;;;1.05;;
72194;SDS011;60095;50.180;9.032;2023-03-20T03:25:51;2.75;;;1.90;;
72194;SDS011;60095;50.180;9.032;2023-03-20T03:28:22;2.05;;;1.63;;
72194;SDS011;60095;50.180;9.032;2023-03-20T03:30:50;3.05;;;2.45;;
72194;SDS011;60095;50.180;9.032;2023-03-20T03:33:18;2.00;;;1.80;;
72194;SDS011;60095;50.180;9.032;2023-03-20T03:35:45;3.03;;;2.75;;
72194;SDS011;60095;50.180;9.032;2023-03-20T03:41:00;2.97;;;2.67;;
72194;SDS011;60095;50.180;9.032;2023-03-20T03:43:30;3.60;;;3.17;;
72194;SDS011;60095;50.180;9.032;2023-03-20T03:45:57;5.35;;;3.15;;
72194;SDS011;60095;50.180;9.032;2023-03-20T03:48:26;2.92;;;2.63;;
72194;SDS011;60095;50.180;9.032;2023-03-20T03:50:56;3.08;;;2.22;;
72194;SDS011;60095;50.180;9.032;2023-03-20T03:53:25;4.57;;;2.38;;
72194;SDS011;60095;50.180;9.032;2023-03-20T03:55:54;4.57;;;2.65;;
72194;SDS011;60095;50.180;9.032;2023-03-20T03:58:24;3.95;;;2.25;;
72194;SDS011;60095;50.180;9.032;2023-03-20T04:00:53;3.15;;;2.85;;
72194;SDS011;60095;50.180;9.032;2023-03-20T04:03:21;9.35;;;3.33;;
72194;SDS011;60095;50.180;9.032;2023-03-20T04:05:49;8.45;;;4.03;;
72194;SDS011;60095;50.180;9.032;2023-03-20T04:08:16;3.53;;;2.88;;
72194;SDS011;60095;50.180;9.032;2023-03-20T04:10:42;6.05;;;3.03;;
72194;SDS011;60095;50.180;9.032;2023-03-20T04:13:08;3.35;;;2.95;;
72194;SDS011;60095;50.180;9.032;2023-03-20T04:15:35;6.20;;;2.80;;
72194;SDS011;60095;50.180;9.032;2023-03-20T04:18:03;6.75;;;3.55;;
72194;SDS011;60095;50.180;9.032;2023-03-20T04:20:30;3.92;;;2.10;;
72194;SDS011;60095;50.180;9.032;2023-03-20T04:22:56;3.85;;;2.63;;
72194;SDS011;60095;50.180;9.032;2023-03-20T04:25:23;2.92;;;2.55;;
72194;SDS011;60095;50.180;9.032;2023-03-20T04:27:50;2.90;;;2.70;;
72194;SDS011;60095;50.180;9.032;2023-03-20T04:30:16;4.22;;;3.72;;
72194;SDS011;60095;50.180;9.032;2023-03-20T04:32:43;4.07;;;3.33;;
72194;SDS011;60095;50.180;9.032;2023-03-20T04:35:10;8.18;;;3.22;;
72194;SDS011;60095;50.180;9.032;2023-03-20T04:37:37;4.82;;;3.45;;
72194;SDS011;60095;50.180;9.032;2023-03-20T04:40:03;4.07;;;3.60;;
72194;SDS011;60095;50.180;9.032;2023-03-20T04:42:30;5.60;;;3.50;;
72194;SDS011;60095;50.180;9.032;2023-03-20T04:44:56;7.00;;;3.22;;
72194;SDS011;60095;50.180;9.032;2023-03-20T04:47:22;3.97;;;3.58;;
72194;SDS011;60095;50.180;9.032;2023-03-20T04:49:48;4.22;;;3.58;;
72194;SDS011;60095;50.180;9.032;2023-03-20T04:52:16;6.50;;;4.03;;
72194;SDS011;60095;50.180;9.032;2023-03-20T04:54:42;3.53;;;3.22;;
72194;SDS011;60095;50.180;9.032;2023-03-20T04:57:09;5.97;;;3.80;;
72194;SDS011;60095;50.180;9.032;2023-03-20T04:59:35;4.25;;;3.85;;
72194;SDS011;60095;50.180;9.032;2023-03-20T05:02:02;6.53;;;3.90;;
72194;SDS011;60095;50.180;9.032;2023-03-20T05:04:28;5.05;;;4.63;;
72194;SDS011;60095;50.180;9.032;2023-03-20T05:06:54;7.78;;;4.82;;
72194;SDS011;60095;50.180;9.032;2023-03-20T05:09:22;4.05;;;3.65;;
72194;SDS011;60095;50.180;9.032;2023-03-20T05:11:49;5.30;;;4.80;;
72194;SDS011;60095;50.180;9.032;2023-03-20T05:14:15;4.72;;;4.28;;
72194;SDS011;60095;50.180;9.032;2023-03-20T05:16:41;6.97;;;5.78;;
72194;SDS011;60095;50.180;9.032;2023-03-20T05:19:07;7.20;;;4.43;;
72194;SDS011;60095;50.180;9.032;2023-03-20T05:21:34;6.32;;;5.35;;
72194;SDS011;60095;50.180;9.032;2023-03-20T05:24:00;5.63;;;4.13;;
72194;SDS011;60095;50.180;9.032;2023-03-20T05:26:28;6.25;;;5.60;;
72194;SDS011;60095;50.180;9.032;2023-03-20T05:28:54;8.48;;;5.63;;
72194;SDS011;60095;50.180;9.032;2023-03-20T05:31:21;4.80;;;4.40;;
72194;SDS011;60095;50.180;9.032;2023-03-20T05:33:47;6.38;;;5.05;;
72194;SDS011;60095;50.180;9.032;2023-03-20T05:36:13;6.05;;;5.55;;
72194;SDS011;60095;50.180;9.032;2023-03-20T05:38:40;5.88;;;4.10;;
72194;SDS011;60095;50.180;9.032;2023-03-20T05:41:06;7.57;;;5.85;;
72194;SDS011;60095;50.180;9.032;2023-03-20T05:43:34;7.97;;;5.65;;
72194;SDS011;60095;50.180;9.032;2023-03-20T05:46:00;18.17;;;7.07;;
72194;SDS011;60095;50.180;9.032;2023-03-20T05:48:26;7.32;;;6.03;;
72194;SDS011;60095;50.180;9.032;2023-03-20T05:50:52;9.35;;;6.40;;
72194;SDS011;60095;50.180;9.032;2023-03-20T05:53:19;6.15;;;4.97;;
72194;SDS011;60095;50.180;9.032;2023-03-20T05:55:45;7.60;;;6.22;;
72194;SDS011;60095;50.180;9.032;2023-03-20T05:58:12;10.52;;;5.30;;
72194;SDS011;60095;50.180;9.032;2023-03-20T06:00:39;6.95;;;6.25;;
72194;SDS011;60095;50.180;9.032;2023-03-20T06:03:06;6.25;;;5.65;;
72194;SDS011;60095;50.180;9.032;2023-03-20T06:05:32;8.55;;;4.97;;
72194;SDS011;60095;50.180;9.032;2023-03-20T06:07:58;9.50;;;6.88;;
72194;SDS011;60095;50.180;9.032;2023-03-20T06:10:25;6.93;;;5.50;;
72194;SDS011;60095;50.180;9.032;2023-03-20T06:12:51;7.47;;;6.28;;
72194;SDS011;60095;50.180;9.032;2023-03-20T06:15:18;7.20;;;6.50;;
72194;SDS011;60095;50.180;9.032;2023-03-20T06:17:45;11.15;;;5.95;;
72194;SDS011;60095;50.180;9.032;2023-03-20T06:20:12;8.05;;;6.75;;
72194;SDS011;60095;50.180;9.032;2023-03-20T06:22:38;8.15;;;7.30;;
72194;SDS011;60095;50.180;9.032;2023-03-20T06:25:05;6.95;;;6.30;;
72194;SDS011;60095;50.180;9.032;2023-03-20T06:27:32;8.88;;;6.93;;
72194;SDS011;60095;50.180;9.032;2023-03-20T06:29:58;11.02;;;7.57;;
72194;SDS011;60095;50.180;9.032;2023-03-20T06:32:24;13.93;;;7.57;;
72194;SDS011;60095;50.180;9.032;2023-03-20T06:34:52;7.53;;;6.32;;
72194;SDS011;60095;50.180;9.032;2023-03-20T06:37:19;7.68;;;5.32;;
72194;SDS011;60095;50.180;9.032;2023-03-20T06:39:45;8.35;;;7.03;;
72194;SDS011;60095;50.180;9.032;2023-03-20T06:42:12;11.13;;;8.52;;
72194;SDS011;60095;50.180;9.032;2023-03-20T06:44:38;10.18;;;9.05;;
72194;SDS011;60095;50.180;9.032;2023-03-20T06:47:05;9.02;;;8.10;;
72194;SDS011;60095;50.180;9.032;2023-03-20T06:49:31;6.55;;;5.80;;
72194;SDS011;60095;50.180;9.032;2023-03-20T06:51:59;11.55;;;8.13;;
72194;SDS011;60095;50.180;9.032;2023-03-20T06:54:25;7.55;;;5.93;;
72194;SDS011;60095;50.180;9.032;2023-03-20T06:56:52;13.38;;;7.57;;
72194;SDS011;60095;50.180;9.032;2023-03-20T06:59:18;9.13;;;7.65;;
72194;SDS011;60095;50.180;9.032;2023-03-20T07:01:44;9.55;;;6.38;;
72194;SDS011;60095;50.180;9.032;2023-03-20T07:04:11;10.38;;;7.32;;
72194;SDS011;60095;50.180;9.032;2023-03-20T07:06:38;9.43;;;7.82;;
72194;SDS011;60095;50.180;9.032;2023-03-20T07:09:06;11.23;;;9.05;;
72194;SDS011;60095;50.180;9.032;2023-03-20T07:11:32;11.00;;;8.50;;
72194;SDS011;60095;50.180;9.032;2023-03-20T07:13:59;10.68;;;8.48;;
72194;SDS011;60095;50.180;9.032;2023-03-20T07:16:26;11.38;;;9.30;;
72194;SDS011;60095;50.180;9.032;2023-03-20T07:18:52;14.63;;;9.80;;
72194;SDS011;60095;50.180;9.032;2023-03-20T07:21:19;13.00;;;7.75;;
72194;SDS011;60095;50.180;9.032;2023-03-20T07:23:46;11.55;;;7.88;;
72194;SDS011;60095;50.180;9.032;2023-03-20T07:26:14;10.88;;;8.20;;
72194;SDS011;60095;50.180;9.032;2023-03-20T07:28:41;9.70;;;6.03;;
72194;SDS011;60095;50.180;9.032;2023-03-20T07:31:08;9.57;;;8.68;;
72194;SDS011;60095;50.180;9.032;2023-03-20T07:33:35;9.77;;;8.07;;
72194;SDS011;60095;50.180;9.032;2023-03-20T07:36:01;8.15;;;7.35;;
72194;SDS011;60095;50.180;9.032;2023-03-20T07:38:27;10.75;;;9.20;;
72194;SDS011;60095;50.180;9.032;2023-03-20T07:40:54;12.73;;;9.45;;
72194;SDS011;60095;50.180;9.032;2023-03-20T07:43:21;11.02;;;9.98;;
72194;SDS011;60095;50.180;9.032;2023-03-20T07:45:50;10.57;;;9.48;;
72194;SDS011;60095;50.180;9.032;2023-03-20T07:48:17;16.60;;;11.27;;
72194;SDS011;60095;50.180;9.032;2023-03-20T07:50:43;15.48;;;9.43;;
72194;SDS011;60095;50.180;9.032;2023-03-20T07:53:10;25.13;;;10.80;;
72194;SDS011;60095;50.180;9.032;2023-03-20T07:55:36;16.02;;;11.60;;
72194;SDS011;60095;50.180;9.032;2023-03-20T07:58:02;14.13;;;10.43;;
72194;SDS011;60095;50.180;9.032;2023-03-20T08:00:30;17.90;;;11.68;;
72194;SDS011;60095;50.180;9.032;2023-03-20T08:02:58;19.33;;;10.98;;
72194;SDS011;60095;50.180;9.032;2023-03-20T08:05:25;14.82;;;11.55;;
72194;SDS011;60095;50.180;9.032;2023-03-20T08:07:51;11.18;;;9.93;;
72194;SDS011;60095;50.180;9.032;2023-03-20T08:10:17;14.98;;;12.93;;
72194;SDS011;60095;50.180;9.032;2023-03-20T08:12:44;18.90;;;11.93;;
72194;SDS011;60095;50.180;9.032;2023-03-20T08:15:10;17.83;;;10.95;;
72194;SDS011;60095;50.180;9.032;2023-03-20T08:17:38;16.23;;;11.35;;
72194;SDS011;60095;50.180;9.032;2023-03-20T08:20:07;21.70;;;11.70;;
72194;SDS011;60095;50.180;9.032;2023-03-20T08:22:33;12.80;;;10.75;;
72194;SDS011;60095;50.180;9.032;2023-03-20T08:25:00;20.30;;;11.82;;
72194;SDS011;60095;50.180;9.032;2023-03-20T08:27:26;16.52;;;13.48;;
72194;SDS011;60095;50.180;9.032;2023-03-20T08:29:52;20.75;;;14.90;;
72194;SDS011;60095;50.180;9.032;2023-03-20T08:32:19;20.30;;;13.85;;
72194;SDS011;60095;50.180;9.032;2023-03-20T08:34:46;22.42;;;16.75;;
72194;SDS011;60095;50.180;9.032;2023-03-20T08:37:13;21.85;;;16.02;;
72194;SDS011;60095;50.180;9.032;2023-03-20T08:39:39;16.80;;;15.07;;
72194;SDS011;60095;50.180;9.032;2023-03-20T08:42:08;22.75;;;16.55;;
72194;SDS011;60095;50.180;9.032;2023-03-20T08:44:35;32.53;;;18.08;;
72194;SDS011;60095;50.180;9.032;2023-03-20T08:47:01;19.45;;;15.60;;
72194;SDS011;60095;50.180;9.032;2023-03-20T08:49:29;22.40;;;15.00;;
72194;SDS011;60095;50.180;9.032;2023-03-20T08:51:57;18.60;;;15.18;;
72194;SDS011;60095;50.180;9.032;2023-03-20T08:54:24;18.85;;;13.15;;
72194;SDS011;60095;50.180;9.032;2023-03-20T08:56:50;23.65;;;17.65;;
72194;SDS011;60095;50.180;9.032;2023-03-20T08:59:17;20.45;;;16.30;;
72194;SDS011;60095;50.180;9.032;2023-03-20T09:01:43;17.70;;;15.35;;
72194;SDS011;60095;50.180;9.032;2023-03-20T09:04:10;21.52;;;17.88;;
72194;SDS011;60095;50.180;9.032;2023-03-20T09:06:36;22.73;;;18.50;;
72194;SDS011;60095;50.180;9.032;2023-03-20T09:09:04;21.42;;;17.50;;
72194;SDS011;60095;50.180;9.032;2023-03-20T09:11:31;21.95;;;19.52;;
72194;SDS011;60095;50.180;9.032;2023-03-20T09:13:57;23.92;;;20.00;;
72194;SDS011;60095;50.180;9.032;2023-03-20T09:16:24;26.08;;;20.10;;
72194;SDS011;60095;50.180;9.032;2023-03-20T09:18:50;28.30;;;19.77;;
72194;SDS011;60095;50.180;9.032;2023-03-20T09:21:17;33.65;;;21.77;;
72194;SDS011;60095;50.180;9.032;2023-03-20T09:23:43;30.83;;;22.40;;
72194;SDS011;60095;50.180;9.032;2023-03-20T09:26:11;32.05;;;21.98;;
72194;SDS011;60095;50.180;9.032;2023-03-20T09:28:37;29.80;;;23.77;;
72194;SDS011;60095;50.180;9.032;2023-03-20T09:31:03;32.03;;;21.27;;
72194;SDS011;60095;50.180;9.032;2023-03-20T09:33:30;26.65;;;22.83;;
72194;SDS011;60095;50.180;9.032;2023-03-20T09:35:56;33.92;;;21.10;;
72194;SDS011;60095;50.180;9.032;2023-03-20T09:38:23;34.15;;;23.73;;
72194;SDS011;60095;50.180;9.032;2023-03-20T09:40:50;28.20;;;25.23;;
72194;SDS011;60095;50.180;9.032;2023-03-20T09:43:21;45.53;;;25.80;;
72194;SDS011;60095;50.180;9.032;2023-03-20T09:45:54;46.03;;;25.15;;
72194;SDS011;60095;50.180;9.032;2023-03-20T09:48:24;28.23;;;22.52;;
72194;SDS011;60095;50.180;9.032;2023-03-20T09:50:55;34.88;;;23.25;;
72194;SDS011;60095;50.180;9.032;2023-03-20T09:53:24;29.02;;;21.90;;
72194;SDS011;60095;50.180;9.032;2023-03-20T09:55:52;33.28;;;21.75;;
72194;SDS011;60095;50.180;9.032;2023-03-20T09:58:22;28.95;;;19.40;;
72194;SDS011;60095;50.180;9.032;2023-03-20T10:00:49;22.23;;;17.55;;
72194;SDS011;60095;50.180;9.032;2023-03-20T10:03:17;18.88;;;17.00;;
72194;SDS011;60095;50.180;9.032;2023-03-20T10:05:45;36.58;;;22.20;;
72194;SDS011;60095;50.180;9.032;2023-03-20T10:08:13;25.27;;;19.30;;
72194;SDS011;60095;50.180;9.032;2023-03-20T10:10:43;33.05;;;22.00;;
72194;SDS011;60095;50.180;9.032;2023-03-20T10:13:16;21.63;;;19.15;;
72194;SDS011;60095;50.180;9.032;2023-03-20T10:15:50;21.83;;;18.00;;
72194;SDS011;60095;50.180;9.032;2023-03-20T10:18:21;28.83;;;22.13;;
72194;SDS011;60095;50.180;9.032;2023-03-20T10:20:52;31.95;;;19.95;;
72194;SDS011;60095;50.180;9.032;2023-03-20T10:23:21;23.95;;;20.00;;
72194;SDS011;60095;50.180;9.032;2023-03-20T10:25:49;31.23;;;21.70;;
72194;SDS011;60095;50.180;9.032;2023-03-20T10:28:16;30.70;;;23.55;;
72194;SDS011;60095;50.180;9.032;2023-03-20T10:30:48;27.50;;;21.25;;
72194;SDS011;60095;50.180;9.032;2023-03-20T10:33:20;24.23;;;20.98;;
72194;SDS011;60095;50.180;9.032;2023-03-20T10:35:53;28.25;;;19.17;;
72194;SDS011;60095;50.180;9.032;2023-03-20T10:38:24;36.13;;;21.23;;
72194;SDS011;60095;50.180;9.032;2023-03-20T10:40:51;29.00;;;21.33;;
72194;SDS011;60095;50.180;9.032;2023-03-20T10:43:19;29.10;;;20.88;;
72194;SDS011;60095;50.180;9.032;2023-03-20T10:45:47;30.20;;;20.90;;
72194;SDS011;60095;50.180;9.032;2023-03-20T10:48:16;25.70;;;22.77;;
72194;SDS011;60095;50.180;9.032;2023-03-20T10:50:47;28.63;;;22.55;;
72194;SDS011;60095;50.180;9.032;2023-03-20T10:53:23;37.03;;;24.10;;
72194;SDS011;60095;50.180;9.032;2023-03-20T10:55:51;26.98;;;21.48;;
72194;SDS011;60095;50.180;9.032;2023-03-20T10:58:20;46.53;;;22.63;;
72194;SDS011;60095;50.180;9.032;2023-03-20T11:00:47;23.25;;;20.20;;
72194;SDS011;60095;50.180;9.032;2023-03-20T11:03:16;30.27;;;20.98;;
72194;SDS011;60095;50.180;9.032;2023-03-20T11:05:44;23.80;;;19.45;;
72194;SDS011;60095;50.180;9.032;2023-03-20T11:08:13;26.67;;;19.27;;
72194;SDS011;60095;50.180;9.032;2023-03-20T11:10:41;20.58;;;17.50;;
72194;SDS011;60095;50.180;9.032;2023-03-20T11:13:13;24.58;;;16.75;;
72194;SDS011;60095;50.180;9.032;2023-03-20T11:15:41;25.25;;;17.55;;
72194;SDS011;60095;50.180;9.032;2023-03-20T11:18:08;27.92;;;18.92;;
72194;SDS011;60095;50.180;9.032;2023-03-20T11:20:38;20.65;;;17.67;;
72194;SDS011;60095;50.180;9.032;2023-03-20T11:23:10;20.02;;;15.05;;
72194;SDS011;60095;50.180;9.032;2023-03-20T11:25:45;23.02;;;14.88;;
72194;SDS011;60095;50.180;9.032;2023-03-20T11:30:39;16.02;;;14.00;;
72194;SDS011;60095;50.180;9.032;2023-03-20T11:33:06;18.98;;;13.18;;
72194;SDS011;60095;50.180;9.032;2023-03-20T11:35:33;16.67;;;11.98;;
72194;SDS011;60095;50.180;9.032;2023-03-20T11:38:08;25.10;;;13.70;;
72194;SDS011;60095;50.180;9.032;2023-03-20T11:40:35;15.65;;;11.48;;
72194;SDS011;60095;50.180;9.032;2023-03-20T11:43:04;14.60;;;12.35;;
72194;SDS011;60095;50.180;9.032;2023-03-20T11:45:33;15.38;;;11.80;;
72194;SDS011;60095;50.180;9.032;2023-03-20T11:48:00;16.15;;;10.75;;
72194;SDS011;60095;50.180;9.032;2023-03-20T11:50:29;13.63;;;11.00;;
72194;SDS011;60095;50.180;9.032;2023-03-20T11:52:56;16.05;;;10.25;;
72194;SDS011;60095;50.180;9.032;2023-03-20T11:55:23;14.80;;;9.63;;
72194;SDS011;60095;50.180;9.032;2023-03-20T11:57:54;24.23;;;12.15;;
72194;SDS011;60095;50.180;9.032;2023-03-20T12:00:23;17.83;;;10.52;;
72194;SDS011;60095;50.180;9.032;2023-03-20T12:02:51;11.93;;;9.73;;
72194;SDS011;60095;50.180;9.032;2023-03-20T12:05:18;17.52;;;9.95;;
72194;SDS011;60095;50.180;9.032;2023-03-20T12:07:46;12.77;;;6.35;;
72194;SDS011;60095;50.180;9.032;2023-03-20T12:10:14;12.77;;;6.78;;
72194;SDS011;60095;50.180;9.032;2023-03-20T12:12:43;11.70;;;7.03;;
72194;SDS011;60095;50.180;9.032;2023-03-20T12:15:14;12.40;;;6.32;;
72194;SDS011;60095;50.180;9.032;2023-03-20T12:17:45;8.02;;;6.82;;
72194;SDS011;60095;50.180;9.032;2023-03-20T12:22:55;6.35;;;4.57;;
72194;SDS011;60095;50.180;9.032;2023-03-20T12:25:24;11.95;;;6.55;;
72194;SDS011;60095;50.180;9.032;2023-03-20T12:27:53;8.18;;;4.75;;
72194;SDS011;60095;50.180;9.032;2023-03-20T12:30:21;7.93;;;5.88;;
72194;SDS011;60095;50.180;9.032;2023-03-20T12:32:55;8.75;;;4.45;;
72194;SDS011;60095;50.180;9.032;2023-03-20T12:35:25;9.93;;;5.85;;
72194;SDS011;60095;50.180;9.032;2023-03-20T12:37:52;7.60;;;6.15;;
72194;SDS011;60095;50.180;9.032;2023-03-20T12:40:19;11.57;;;6.82;;
72194;SDS011;60095;50.180;9.032;2023-03-20T12:42:53;7.20;;;5.05;;
72194;SDS011;60095;50.180;9.032;2023-03-20T12:45:22;11.80;;;7.18;;
72194;SDS011;60095;50.180;9.032;2023-03-20T12:50:33;8.07;;;5.88;;
72194;SDS011;60095;50.180;9.032;2023-03-20T12:53:06;5.78;;;4.00;;
72194;SDS011;60095;50.180;9.032;2023-03-20T12:55:42;9.10;;;5.60;;
72194;SDS011;60095;50.180;9.032;2023-03-20T12:58:17;11.75;;;5.00;;
72194;SDS011;60095;50.180;9.032;2023-03-20T13:00:45;4.67;;;4.23;;
72194;SDS011;60095;50.180;9.032;2023-03-20T13:06:01;8.55;;;4.50;;
72194;SDS011;60095;50.180;9.032;2023-03-20T13:11:15;3.55;;;3.00;;
72194;SDS011;60095;50.180;9.032;2023-03-20T13:13:46;10.25;;;6.65;;
72194;SDS011;60095;50.180;9.032;2023-03-20T13:16:16;7.05;;;4.45;;
72194;SDS011;60095;50.180;9.032;2023-03-20T13:18:54;4.25;;;3.85;;
72194;SDS011;60095;50.180;9.032;2023-03-20T13:21:28;7.80;;;4.50;;
72194;SDS011;60095;50.180;9.032;2023-03-20T13:23:58;8.30;;;5.28;;
72194;SDS011;60095;50.180;9.032;2023-03-20T13:26:30;6.38;;;3.65;;
72194;SDS011;60095;50.180;9.032;2023-03-20T13:29:00;6.57;;;5.05;;
72194;SDS011;60095;50.180;9.032;2023-03-20T13:31:43;7.90;;;4.35;;
72194;SDS011;60095;50.180;9.032;2023-03-20T13:34:15;3.85;;;3.47;;
72194;SDS011;60095;50.180;9.032;2023-03-20T13:36:49;5.00;;;4.00;;
72194;SDS011;60095;50.180;9.032;2023-03-20T13:39:23;7.63;;;3.75;;
72194;SDS011;60095;50.180;9.032;2023-03-20T13:41:52;5.13;;;4.18;;
72194;SDS011;60095;50.180;9.032;2023-03-20T13:44:21;3.65;;;3.15;;
72194;SDS011;60095;50.180;9.032;2023-03-20T13:46:49;5.22;;;3.60;;
72194;SDS011;60095;50.180;9.032;2023-03-20T13:49:19;8.98;;;3.17;;
72194;SDS011;60095;50.180;9.032;2023-03-20T13:51:47;3.00;;;2.50;;
72194;SDS011;60095;50.180;9.032;2023-03-20T13:54:25;3.63;;;1.83;;
72194;SDS011;60095;50.180;9.032;2023-03-20T13:56:56;2.83;;;1.58;;
72194;SDS011;60095;50.180;9.032;2023-03-20T14:02:17;1.95;;;1.60;;
72194;SDS011;60095;50.180;9.032;2023-03-20T14:04:45;2.17;;;1.47;;
72194;SDS011;60095;50.180;9.032;2023-03-20T14:07:26;2.33;;;1.85;;
72194;SDS011;60095;50.180;9.032;2023-03-20T14:09:54;8.85;;;3.80;;
72194;SDS011;60095;50.180;9.032;2023-03-20T14:12:22;4.45;;;3.22;;
72194;SDS011;60095;50.180;9.032;2023-03-20T14:14:51;9.55;;;4.20;;
72194;SDS011;60095;50.180;9.032;2023-03-20T14:17:19;2.58;;;2.22;;
72194;SDS011;60095;50.180;9.032;2023-03-20T14:19:46;4.35;;;2.42;;
72194;SDS011;60095;50.180;9.032;2023-03-20T14:22:14;3.08;;;2.67;;
72194;SDS011;60095;50.180;9.032;2023-03-20T14:24:43;2.30;;;1.77;;
72194;SDS011;60095;50.180;9.032;2023-03-20T14:27:15;5.00;;;2.13;;
72194;SDS011;60095;50.180;9.032;2023-03-20T14:29:44;3.90;;;2.95;;
72194;SDS011;60095;50.180;9.032;2023-03-20T14:32:21;5.03;;;3.35;;
72194;SDS011;60095;50.180;9.032;2023-03-20T14:34:48;2.03;;;1.80;;
72194;SDS011;60095;50.180;9.032;2023-03-20T14:37:26;3.40;;;1.42;;
72194;SDS011;60095;50.180;9.032;2023-03-20T14:39:56;1.83;;;1.13;;
72194;SDS011;60095;50.180;9.032;2023-03-20T14:42:26;2.22;;;1.33;;
72194;SDS011;60095;50.180;9.032;2023-03-20T14:47:43;2.63;;;1.70;;
72194;SDS011;60095;50.180;9.032;2023-03-20T14:50:13;4.97;;;1.67;;
72194;SDS011;60095;50.180;9.032;2023-03-20T14:52:51;2.00;;;1.15;;
72194;SDS011;60095;50.180;9.032;2023-03-20T14:55:29;2.72;;;1.88;;
72194;SDS011;60095;50.180;9.032;2023-03-20T14:57:58;2.50;;;0.60;;
72194;SDS011;60095;50.180;9.032;2023-03-20T15:00:27;2.10;;;1.40;;
72194;SDS011;60095;50.180;9.032;2023-03-20T15:02:57;1.02;;;0.70;;
72194;SDS011;60095;50.180;9.032;2023-03-20T15:05:28;0.60;;;0.50;;
72194;SDS011;60095;50.180;9.032;2023-03-20T15:07:55;2.53;;;0.60;;
72194;SDS011;60095;50.180;9.032;2023-03-20T15:10:23;1.00;;;0.90;;
72194;SDS011;60095;50.180;9.032;2023-03-20T15:12:50;4.88;;;1.50;;